Date,TemperatureHighF,TemperatureAvgF,TemperatureLowF,DewpointHighF,DewpointAvgF,DewpointLowF,HumidityHigh,HumidityAvg,HumidityLow,PressureMaxIn,PressureMinIn,WindSpeedMaxMPH,WindSpeedAvgMPH,GustSpeedMaxMPH,PrecipitationSumIn
2012-1-1,75.8,62.4,49.5,69.6,53.3,36.6,100,76,36,30.30,30.09,19,2,23,0.01
2012-1-2,59.2,47.6,38.2,36.6,24.9,15.3,78,45,20,30.45,30.29,25,2,27,0.00
2012-1-3,52.2,38.7,29.0,24.2,17.0,3.8,77,47,15,30.53,30.37,16,2,19,0.00
2012-1-4,55.9,43.4,26.1,49.8,35.9,22.2,92,76,43,30.43,30.25,11,0,12,0.00
2012-1-5,70.8,54.7,43.8,58.4,50.8,43.0,100,88,61,30.25,30.10,13,0,13,0.00
2012-1-6,64.7,55.7,45.2,61.3,54.2,44.9,100,95,81,30.14,30.02,7,0,9,0.01
2012-1-7,68.1,60.6,54.1,63.5,58.6,54.1,100,93,72,30.08,30.01,6,0,7,0.02
2012-1-8,70.4,64.0,58.0,65.8,61.6,58.0,100,92,78,30.12,30.04,8,0,11,0.01
2012-1-9,69.9,64.9,61.6,67.3,63.7,61.5,100,96,83,30.08,29.94,9,0,12,0.01
2012-1-10,65.3,63.5,54.4,65.3,62.0,50.6,100,95,78,29.94,29.67,25,1,28,0.00
2012-1-11,65.0,55.5,48.3,52.8,47.3,43.6,97,75,53,29.79,29.67,23,3,25,0.00
2012-1-12,60.9,52.5,37.5,58.0,39.3,14.6,98,65,25,30.14,29.71,26,4,26,0.00
2012-1-13,52.6,38.7,26.6,26.7,20.8,13.3,83,53,24,30.28,30.13,14,1,15,0.00
2012-1-14,57.3,43.3,25.3,42.5,30.3,11.8,91,65,19,30.37,30.26,16,2,19,0.00
2012-1-15,59.8,47.3,33.7,46.9,40.2,31.6,98,78,42,30.44,30.31,9,0,11,0.00
2012-1-16,69.1,57.5,41.3,60.3,54.1,40.5,100,89,70,30.34,30.13,12,0,13,0.01
2012-1-17,68.3,62.9,58.9,65.5,60.9,57.6,100,93,82,30.13,29.98,16,2,19,0.51
2012-1-18,64.7,52.1,40.9,63.5,39.1,27.7,100,65,27,30.19,30.01,22,4,25,0.01
2012-1-19,62.9,52.7,37.2,60.6,48.8,35.2,95,87,69,30.11,29.95,11,0,14,0.00
2012-1-20,71.5,65.1,61.3,66.4,63.9,60.3,100,96,79,29.99,29.90,14,2,17,0.00
2012-1-21,74.2,67.5,63.4,70.6,65.6,63.2,100,94,76,29.97,29.87,13,2,15,0.01
2012-1-22,68.4,66.3,64.2,68.4,66.3,64.2,100,100,100,29.97,29.90,13,1,15,0.00
2012-1-23,70.6,65.5,56.3,70.6,64.3,51.6,100,96,78,30.01,29.90,12,1,18,0.13
2012-1-24,69.8,60.9,53.2,63.1,50.2,42.1,99,70,44,30.12,30.01,11,1,13,0.09
2012-1-25,71.3,66.5,63.4,68.3,65.9,63.1,100,98,87,30.03,29.88,16,1,16,0.00
2012-1-26,71.3,65.0,56.5,69.9,60.5,46.3,100,86,68,29.88,29.72,18,2,25,0.43
2012-1-27,67.6,55.3,44.3,47.9,43.9,34.3,95,69,30,30.09,29.87,15,1,22,0.00
2012-1-28,73.3,54.9,38.9,53.0,44.5,35.8,100,72,42,30.28,30.06,15,2,20,0.01
2012-1-29,62.3,47.8,36.0,39.0,30.6,18.2,92,55,19,30.41,30.27,11,1,15,0.00
2012-1-30,61.5,49.6,34.3,51.9,39.5,27.7,93,71,39,30.37,30.25,12,1,15,0.00
2012-1-31,70.8,60.5,49.5,63.7,56.6,46.2,100,88,72,30.26,30.13,9,0,16,0.00
2012-2-1,65.3,62.7,61.2,65.3,62.7,61.2,100,100,100,30.16,30.05,11,0,12,0.80
2012-2-2,73.2,65.0,60.4,68.8,63.4,60.4,100,95,74,30.13,30.06,9,0,10,0.00
2012-2-3,66.8,64.5,62.6,65.5,64.0,62.6,100,98,91,30.13,30.05,13,1,14,0.03
2012-2-4,71.1,66.5,61.2,69.6,65.6,61.2,100,97,87,30.07,29.99,13,0,15,0.04
2012-2-5,63.7,59.2,52.6,61.2,56.5,47.2,100,91,79,30.13,29.99,18,4,19,0.01
2012-2-6,66.3,54.7,49.1,51.1,45.9,42.5,82,73,45,30.17,30.07,16,2,17,0.00
2012-2-7,68.3,56.6,46.1,51.8,47.0,41.9,88,72,42,30.14,30.04,10,1,12,0.00
2012-2-8,68.3,56.8,48.3,47.2,42.1,38.0,84,61,35,30.23,30.13,9,0,13,0.00
2012-2-9,58.3,49.3,41.6,45.8,40.7,36.8,90,73,49,30.27,30.13,13,0,13,0.00
2012-2-10,58.3,50.8,47.0,50.4,47.3,44.6,100,89,65,30.14,29.94,12,0,14,0.24
2012-2-11,51.7,45.1,33.5,48.2,29.8,13.7,100,60,27,30.42,30.04,16,1,22,0.01
2012-2-12,50.1,37.6,28.5,26.1,14.9,6.8,69,42,17,30.51,30.30,12,1,16,0.00
2012-2-13,59.5,48.3,34.0,56.3,36.9,18.2,90,66,34,30.30,29.84,9,0,13,0.01
2012-2-14,69.4,60.3,52.2,59.9,55.9,51.0,100,87,61,30.02,29.81,5,0,6,0.29
2012-2-15,64.7,56.7,49.1,64.7,55.9,48.8,100,97,86,30.12,29.96,17,1,19,0.40
2012-2-16,73.5,65.9,61.0,68.9,63.1,56.8,100,91,71,30.06,29.96,14,1,16,0.22
2012-2-17,69.3,61.1,56.0,59.8,55.2,50.8,98,82,65,30.07,29.95,10,1,14,0.00
2012-2-18,64.2,59.0,53.2,64.0,58.9,53.2,100,100,98,29.96,29.59,22,2,25,1.82
2012-2-19,57.2,53.8,43.6,57.2,48.8,41.0,100,84,64,30.07,29.67,24,3,28,0.01
2012-2-20,62.7,50.0,36.3,53.7,42.2,29.9,100,78,31,30.15,30.06,11,0,12,0.00
2012-2-21,71.3,61.8,55.0,61.2,58.8,53.0,100,91,69,30.15,29.99,11,0,14,0.01
2012-2-22,69.1,62.3,51.6,68.8,62.1,51.6,100,99,93,30.00,29.69,18,2,18,0.08
2012-2-23,73.7,68.0,64.3,68.4,66.8,64.3,100,96,81,29.73,29.63,23,3,28,0.01
2012-2-24,69.8,61.8,52.6,69.8,46.5,23.1,100,64,28,30.24,29.68,15,0,16,0.01
2012-2-25,58.6,52.5,45.4,40.2,27.9,18.5,66,40,22,30.31,30.18,0,0,0,0.00
2012-2-26,59.2,55.1,51.7,52.8,41.2,30.2,92,61,39,30.25,30.17,0,0,0,0.00
2012-3-2,74.6,70.5,67.8,70.8,69.7,67.8,100,97,86,29.83,29.71,0,0,0,0.41
2012-3-3,70.3,57.6,46.1,70.3,51.1,35.3,100,80,54,29.98,29.66,15,0,19,0.01
2012-3-4,69.3,55.2,40.3,46.3,33.1,21.8,85,50,18,30.19,29.98,20,2,28,0.00
2012-3-5,79.6,61.7,50.1,53.9,46.8,34.5,93,63,21,30.32,30.19,15,1,17,0.00
2012-3-6,67.9,60.8,46.4,60.3,53.2,39.7,96,77,59,30.37,30.24,17,2,18,0.00
2012-3-7,72.3,65.8,61.5,64.9,63.3,60.3,100,92,77,30.25,30.14,15,2,16,0.00
2012-3-8,73.9,67.6,62.6,68.6,66.1,62.6,100,95,82,30.16,30.05,11,0,13,0.03
2012-3-9,68.1,61.7,53.1,68.1,59.5,43.0,100,93,68,30.25,30.05,19,2,25,0.78
2012-3-10,67.3,58.6,48.8,62.0,48.8,37.9,99,72,39,30.25,30.15,11,1,11,0.00
2012-3-11,68.1,65.0,61.5,66.6,63.7,60.8,100,96,87,30.21,30.10,17,2,22,0.01
2012-3-12,68.3,65.4,61.3,67.9,65.2,61.3,100,99,95,30.18,30.07,19,0,23,0.66
2012-3-13,76.0,68.2,60.2,72.5,67.0,60.2,100,96,82,30.19,30.10,10,0,11,0.01
2012-3-14,78.5,68.5,62.3,72.4,66.7,62.3,100,95,72,30.21,30.10,9,0,10,0.01
2012-3-15,77.9,69.2,62.0,70.3,65.8,61.7,100,90,66,30.24,30.13,9,0,11,0.00
2012-3-16,79.0,67.7,58.4,71.5,64.2,58.4,100,90,62,30.19,30.10,12,0,13,0.02
2012-3-17,78.6,70.3,60.9,73.3,67.5,60.9,100,92,72,30.16,30.08,10,0,12,0.00
2012-3-18,77.6,72.0,67.3,72.3,69.6,67.3,100,93,78,30.16,30.07,13,0,14,0.01
2012-3-19,78.8,72.3,68.8,70.4,69.4,68.2,100,91,72,30.07,29.92,12,1,15,0.01
2012-3-20,79.2,73.5,70.6,70.6,69.2,67.5,97,87,74,29.94,29.86,16,2,19,0.00
2012-3-21,78.8,72.3,65.2,72.7,69.4,63.0,100,91,77,29.94,29.82,25,3,32,4.41
2012-3-22,72.1,65.5,59.0,72.1,65.5,59.0,100,100,100,30.02,29.87,13,1,15,2.64
2012-3-23,77.9,72.3,68.9,72.7,70.7,68.5,100,95,75,29.96,29.88,15,1,17,0.21
2012-3-24,84.5,72.2,60.7,69.8,59.4,49.3,100,70,31,29.93,29.82,7,0,11,0.03
2012-3-25,84.9,68.7,54.5,59.0,53.3,46.8,91,63,28,29.96,29.85,0,0,0,0.01
2012-3-26,81.8,69.5,58.3,66.0,59.8,54.8,94,74,41,30.00,29.91,0,0,0,0.00
2012-3-27,82.2,69.9,57.6,67.7,62.8,57.6,100,81,47,30.08,29.97,5,0,6,0.00
2012-3-28,79.8,73.7,69.8,68.2,66.3,63.8,90,78,61,30.11,29.97,12,0,13,0.00
2012-3-29,79.6,72.9,64.2,71.0,67.7,63.7,100,84,65,29.98,29.87,13,0,14,0.00
2012-3-30,80.9,74.6,69.6,71.2,68.2,64.5,97,81,60,29.90,29.80,14,1,15,0.00
2012-3-31,83.2,73.4,64.8,71.7,67.7,64.8,100,84,59,29.90,29.80,7,0,10,0.40
2012-4-1,82.0,74.3,66.3,73.8,70.4,66.0,100,88,69,29.88,29.79,12,1,13,0.01
2012-4-2,82.8,74.8,64.8,74.1,70.8,63.1,100,88,70,29.87,29.75,16,2,23,0.94
2012-4-3,83.8,72.5,62.7,74.0,68.1,62.7,100,88,57,29.90,29.77,12,0,12,0.36
2012-4-4,75.6,67.6,62.4,74.1,65.0,62.1,100,92,73,29.97,29.71,22,1,27,1.85
2012-4-5,84.1,71.3,63.2,71.4,64.2,54.4,100,81,48,29.78,29.63,17,1,19,0.08
2012-4-6,80.3,67.4,54.4,58.5,55.5,52.5,95,68,44,29.99,29.78,14,1,14,0.00
2012-4-7,75.3,65.5,56.0,62.9,58.8,54.5,99,80,58,30.16,29.98,14,0,14,0.00
2012-4-8,80.1,67.0,55.3,64.1,58.2,54.8,100,76,44,30.18,30.07,12,1,14,0.00
2012-4-9,81.8,69.0,58.6,64.2,60.2,55.3,97,76,42,30.10,29.99,12,1,12,0.00
2012-4-10,79.0,68.5,56.0,64.3,58.8,50.5,98,75,39,30.07,29.97,12,1,16,0.00
2012-4-11,82.6,69.5,59.9,69.4,63.2,53.1,100,82,52,30.05,29.97,11,0,11,0.01
2012-4-12,73.3,64.6,54.1,56.2,49.4,41.9,77,59,40,30.11,30.02,12,1,13,0.00
2012-4-13,78.1,67.5,54.7,65.1,58.0,53.9,97,74,48,30.09,30.01,12,0,14,0.00
2012-4-14,80.9,70.7,56.6,70.0,64.7,55.6,100,82,62,30.10,30.00,16,1,17,0.00
2012-4-15,83.2,76.1,72.1,73.7,71.4,65.3,96,86,72,30.02,29.93,19,2,19,0.00
2012-4-16,81.6,74.9,70.1,73.4,71.3,64.7,96,89,68,30.10,29.94,13,1,17,0.15
2012-4-17,78.6,70.2,60.7,71.3,66.7,59.6,99,89,77,30.05,29.97,19,2,25,0.38
2012-4-18,78.5,65.3,56.6,61.4,58.3,55.6,99,80,51,30.00,29.91,19,4,24,0.02
2012-4-19,77.6,66.7,56.2,62.0,58.0,54.0,97,76,49,29.94,29.82,13,1,14,0.00
2012-4-20,79.9,68.2,56.2,65.0,58.9,54.5,100,75,47,29.85,29.71,13,1,15,0.00
2012-4-21,72.7,64.9,57.8,63.2,59.8,51.7,98,84,70,29.78,29.62,23,5,29,0.00
2012-4-22,78.6,64.3,50.8,53.2,47.1,41.1,89,58,27,29.89,29.75,24,5,27,0.00
2012-4-23,71.1,60.4,48.5,46.0,40.6,31.4,81,51,27,30.02,29.89,23,4,30,0.00
2012-4-24,70.1,58.6,40.3,54.7,43.4,27.7,96,62,23,30.07,29.94,18,2,23,0.00
2012-4-25,77.2,68.5,59.6,66.7,60.3,51.6,93,76,52,30.00,29.93,16,3,18,0.00
2012-4-26,80.9,72.9,66.8,67.9,66.2,63.6,97,81,58,30.02,29.92,18,3,20,0.00
2012-4-27,79.8,72.9,64.7,70.3,67.0,63.8,99,83,64,30.03,29.94,14,1,15,0.00
2012-4-28,81.2,74.8,69.8,69.2,66.9,64.9,88,77,60,30.02,29.93,16,1,17,0.00
2012-4-29,81.6,75.0,67.9,72.2,69.5,65.8,98,84,66,30.07,29.97,11,1,13,0.00
2012-4-30,84.5,75.1,64.3,74.4,68.6,63.7,100,82,53,30.07,29.97,9,0,10,0.00
2012-5-1,84.0,75.3,65.8,74.8,70.0,65.2,100,85,65,30.02,29.91,15,1,16,0.01
2012-5-2,77.2,73.5,68.6,75.6,72.3,68.5,100,96,88,29.98,29.87,24,1,24,2.13
2012-5-3,83.8,76.9,71.3,74.7,72.3,70.9,100,86,71,29.98,29.88,0,0,0,0.00
2012-5-4,86.1,78.2,70.6,75.5,72.6,69.8,99,84,62,29.99,29.91,0,0,0,0.00
2012-5-5,84.9,77.5,69.9,76.1,72.7,69.2,99,86,68,29.95,29.85,0,0,0,0.01
2012-5-6,85.3,76.1,70.1,76.4,71.3,65.4,100,86,65,29.91,29.82,16,0,17,0.01
2012-5-7,85.7,75.2,65.3,74.8,69.6,64.9,99,84,66,29.88,29.78,14,0,17,0.01
2012-5-8,86.7,76.9,66.6,72.8,69.7,65.7,98,80,58,29.85,29.77,14,1,16,0.00
2012-5-9,83.2,75.4,66.0,72.8,68.1,62.3,97,79,56,29.86,29.77,28,2,33,0.00
2012-5-10,81.1,70.4,58.4,63.6,57.4,48.1,99,68,34,29.91,29.83,11,1,14,0.00
2012-5-11,78.3,69.8,59.5,69.1,62.3,57.9,96,79,58,29.99,29.88,6,0,7,0.07
2012-5-12,82.2,75.4,68.1,75.1,71.1,66.3,95,87,74,30.01,29.93,20,2,23,0.15
2012-5-13,84.5,73.5,63.4,71.3,65.6,63.1,100,79,51,30.00,29.91,19,0,19,0.01
2012-5-14,83.4,72.6,62.4,68.2,65.5,61.7,99,80,55,29.97,29.86,17,0,25,0.00
2012-5-15,84.5,75.4,63.5,67.7,64.6,61.5,96,71,49,29.95,29.86,10,0,17,0.00
2012-5-16,85.1,76.0,66.3,68.3,66.2,62.8,96,74,50,29.95,29.85,10,0,14,0.00
2012-5-17,87.6,75.1,60.2,67.1,63.2,57.8,97,70,39,29.93,29.85,8,0,8,0.00
2012-5-18,89.5,73.4,64.2,69.6,64.9,55.2,99,78,32,29.92,29.86,6,0,7,0.00
2012-5-19,85.3,75.2,65.8,72.2,68.5,64.8,99,81,60,29.99,29.89,0,0,0,0.00
2012-5-20,89.3,76.1,66.3,70.3,63.9,56.9,100,70,37,30.02,29.94,6,0,9,0.01
2012-5-21,94.3,78.3,62.9,68.7,62.3,54.3,97,64,27,30.00,29.88,11,0,13,0.00
2012-5-22,90.5,77.5,67.3,69.5,65.5,61.0,89,68,39,29.91,29.78,0,0,2,0.00
2012-5-23,86.7,77.5,64.8,73.8,67.0,58.7,89,71,55,29.83,29.73,0,0,0,0.00
2012-5-24,87.0,81.2,76.5,72.9,71.2,68.9,84,72,61,29.86,29.75,0,0,0,0.00
2012-5-25,87.6,80.5,70.1,73.6,71.1,66.1,92,75,50,30.00,29.84,0,0,0,0.00
2012-5-26,92.7,79.4,66.0,73.2,68.9,65.4,99,73,46,30.05,29.94,0,0,0,0.00
2012-5-27,96.3,83.0,72.1,74.1,70.1,66.4,91,68,38,29.95,29.83,0,0,0,0.00
2012-5-28,92.3,84.4,73.0,76.0,72.8,70.0,94,69,50,29.86,29.77,0,0,0,0.00
2012-5-29,96.1,84.2,77.0,75.3,70.7,59.9,84,66,36,29.85,29.76,4,0,5,0.00
2012-5-30,91.6,82.6,72.0,75.7,72.2,64.5,95,72,48,29.84,29.73,0,0,0,0.00
2012-5-31,86.1,74.7,67.1,75.1,69.2,64.9,99,84,62,29.81,29.67,2,0,11,0.39
2012-6-1,87.8,76.3,66.4,75.2,66.0,56.7,100,74,40,29.88,29.74,18,0,18,0.80
2012-6-2,81.8,72.8,58.7,66.1,60.6,56.2,93,67,45,29.97,29.86,0,0,2,0.00
2012-6-3,86.3,79.2,67.3,76.4,72.6,64.8,97,81,64,29.97,29.87,0,0,0,0.00
2012-6-4,92.1,82.2,74.2,77.5,74.1,69.9,97,78,50,29.89,29.74,0,0,0,0.00
2012-6-5,91.4,82.5,75.1,78.2,75.2,70.7,98,80,55,29.76,29.63,0,0,0,0.00
2012-6-6,91.4,81.6,73.5,79.2,75.9,72.2,99,84,57,29.80,29.68,0,0,1,0.33
2012-6-7,88.6,78.2,71.8,78.0,73.8,69.2,100,87,69,29.84,29.75,10,0,12,0.01
2012-6-8,83.8,74.3,71.1,77.9,72.6,69.5,100,95,76,29.87,29.79,9,0,9,1.86
2012-6-9,76.7,73.9,69.9,75.1,73.4,69.9,100,98,90,29.83,29.75,12,0,17,0.63
2012-6-10,78.5,75.9,71.8,77.4,74.6,70.7,100,96,90,29.90,29.74,19,2,21,0.02
2012-6-11,87.8,81.9,77.0,79.5,77.8,75.1,98,88,72,30.04,29.89,17,3,17,0.01
2012-6-12,90.7,78.5,68.9,78.1,70.8,65.3,99,79,44,30.09,29.87,30,2,30,0.01
2012-6-13,89.9,79.4,69.6,72.3,69.6,67.6,96,74,49,29.95,29.84,13,1,16,0.00
2012-6-14,90.1,79.3,72.7,73.5,71.0,67.8,97,77,52,29.94,29.85,20,1,20,0.00
2012-6-15,87.8,78.6,72.1,75.0,70.5,67.2,91,77,57,30.00,29.86,18,1,21,0.00
2012-6-16,86.1,78.7,70.6,73.1,68.7,64.2,98,73,52,30.05,29.95,12,1,19,0.00
2012-6-17,86.3,78.1,67.6,75.9,70.3,64.6,92,77,59,29.99,29.89,13,1,16,0.00
2012-6-18,87.4,81.5,77.0,73.5,71.4,69.3,83,72,58,29.95,29.86,12,1,12,0.00
2012-6-19,87.4,81.4,76.3,74.7,71.8,68.6,82,73,61,30.02,29.92,11,0,15,0.00
2012-6-20,87.8,80.1,71.1,75.4,70.4,66.2,95,73,54,29.99,29.93,6,0,13,0.00
2012-6-21,92.1,79.5,69.1,75.7,70.5,62.8,95,76,40,29.93,29.82,12,0,13,0.00
2012-6-22,91.4,81.4,73.5,77.9,72.7,67.4,94,76,56,29.85,29.77,10,0,10,0.00
2012-6-23,90.7,82.1,73.7,78.7,75.5,73.1,99,81,63,29.81,29.75,12,0,13,0.00
2012-6-24,93.6,83.1,74.2,74.8,72.1,68.7,94,72,46,29.80,29.69,17,2,21,0.00
2012-6-25,96.1,85.5,75.4,73.2,69.7,62.8,84,62,35,29.69,29.56,29,4,29,0.00
2012-6-26,98.5,87.7,75.4,78.6,73.6,59.0,89,65,30,29.71,29.57,11,1,14,0.00
2012-6-27,89.5,81.8,72.7,80.2,72.6,66.9,90,74,58,29.94,29.70,13,0,14,0.00
2012-6-28,90.7,84.8,80.9,79.5,77.1,72.3,93,78,56,30.02,29.92,13,1,14,0.00
2012-6-29,86.7,82.0,78.8,78.6,77.5,75.6,95,86,74,29.97,29.93,11,1,11,0.00
2012-7-3,96.3,81.8,74.0,76.9,73.8,69.2,98,79,48,29.99,29.88,13,1,30,0.14
2012-7-4,92.9,79.9,72.5,78.3,74.0,71.6,99,84,57,30.00,29.92,6,0,25,0.00
2012-7-5,96.1,82.9,71.5,77.2,74.0,70.6,98,77,46,30.01,29.89,0,0,0,0.00
2012-7-6,89.0,80.9,74.7,77.5,73.7,71.8,94,80,62,29.99,29.89,0,0,0,0.00
2012-7-7,88.0,80.0,72.7,76.7,73.5,71.6,98,82,62,30.00,29.91,0,0,0,0.00
2012-7-8,90.5,83.1,76.8,77.9,74.6,71.8,92,76,55,30.01,29.92,9,1,14,0.00
2012-7-9,87.0,78.8,73.0,78.1,75.5,72.1,98,90,73,29.97,29.89,14,0,14,0.24
2012-7-10,85.1,78.2,73.7,78.9,74.9,71.0,98,90,73,29.96,29.87,11,0,14,0.91
2012-7-11,87.6,80.6,74.7,77.5,75.1,72.3,96,84,70,29.95,29.89,19,1,21,0.06
2012-7-14,82.4,77.8,74.0,79.0,75.9,73.4,100,94,83,29.99,29.91,7,0,8,0.31
2012-7-15,89.0,82.5,75.8,78.8,76.5,74.1,97,83,64,30.02,29.91,21,1,23,0.31
2012-7-16,90.3,83.0,76.1,78.0,75.6,72.2,97,79,61,30.02,29.91,13,0,13,0.00
2012-7-17,94.7,83.2,71.1,78.9,74.8,68.8,99,78,51,30.00,29.85,21,1,28,1.49
2012-7-18,95.6,76.7,71.1,80.5,74.1,70.1,100,93,54,30.01,29.88,21,0,26,1.30
2012-7-19,87.4,75.0,71.8,81.8,74.2,71.8,100,97,75,30.08,29.98,15,0,22,1.98
2012-7-20,82.8,75.8,71.8,79.9,74.9,71.7,100,97,80,30.01,29.92,12,0,12,0.09
2012-7-21,88.0,74.9,70.8,77.8,72.8,70.6,100,94,60,29.99,29.91,10,0,11,0.01
2012-8-9,79.8,75.3,70.6,76.8,73.6,69.3,100,95,82,29.92,29.82,14,1,23,1.07
2012-8-10,88.0,80.1,72.7,80.4,76.9,72.4,100,90,68,29.86,29.77,15,0,17,0.03
2012-8-11,87.4,79.3,72.7,79.3,76.0,71.9,100,90,70,29.91,29.77,14,0,14,1.15
2012-8-12,90.5,81.6,73.2,78.2,74.4,68.9,100,81,51,29.97,29.88,6,0,7,0.00
2012-8-16,91.8,81.6,75.6,79.6,76.7,71.2,99,86,64,29.98,29.89,2,0,12,0.04
2012-8-17,91.0,80.2,73.2,80.5,75.2,72.6,99,86,58,29.97,29.86,1,0,13,0.05
2012-8-18,88.8,78.5,74.9,79.5,75.6,71.5,100,92,68,29.89,29.82,0,0,0,0.07
2012-8-19,77.0,75.3,73.0,76.1,74.5,72.4,99,98,96,29.87,29.77,0,0,1,0.78
2012-8-20,85.9,76.4,70.3,74.3,72.3,70.3,100,88,66,29.85,29.79,0,0,0,0.01
2012-8-21,88.0,77.7,70.1,75.5,72.3,69.8,100,85,58,29.94,29.82,0,0,2,0.01
2012-8-22,90.3,80.8,70.6,73.5,69.0,60.7,95,70,39,30.00,29.91,9,0,11,0.00
2012-8-23,90.3,78.6,68.9,74.1,69.8,58.9,99,78,37,30.02,29.95,1,0,2,0.00
2012-8-24,88.6,78.8,71.6,76.6,73.2,71.0,99,84,59,30.01,29.92,3,0,6,0.00
2012-8-25,89.0,80.0,72.7,77.8,74.1,71.9,99,83,65,29.99,29.91,9,0,12,0.00
2012-8-26,89.9,80.3,71.3,75.3,73.3,70.7,99,81,57,30.02,29.90,2,0,11,0.00
2012-8-27,91.2,80.4,68.9,73.4,67.2,60.4,95,67,37,29.92,29.68,0,0,1,0.00
2012-8-28,82.8,79.1,76.1,74.9,72.6,67.0,96,81,64,29.69,29.59,0,0,1,0.14
2012-8-29,79.0,78.4,77.4,78.3,78.0,77.1,99,99,97,29.44,29.37,0,0,2,2.52
2012-8-30,81.6,79.5,75.6,79.7,78.3,75.2,99,96,94,29.93,29.77,0,0,0,0.97
2012-8-31,84.9,81.3,79.0,80.1,78.9,76.8,98,93,81,30.06,29.92,0,0,6,0.00
2012-9-1,88.4,82.0,77.9,81.2,78.7,77.6,100,90,73,30.10,30.00,0,0,1,0.00
2012-9-2,91.0,83.5,78.5,80.0,78.0,75.2,97,85,61,30.03,29.89,0,0,2,0.00
2012-9-3,89.7,85.6,77.7,81.0,78.3,76.5,98,79,66,29.97,29.85,0,0,0,0.00
2012-9-4,93.2,82.8,73.2,79.3,75.2,71.1,99,80,50,29.91,29.78,0,0,1,0.06
2012-9-5,91.2,81.5,75.8,80.6,77.6,74.8,99,88,67,29.82,29.73,0,0,1,0.25
2012-9-6,89.9,81.0,74.4,79.1,76.2,74.0,100,86,66,29.87,29.78,0,0,1,0.00
2012-9-7,89.0,81.8,75.1,78.9,76.0,74.4,99,84,64,29.87,29.75,0,0,0,0.00
2012-9-8,95.1,80.4,73.0,79.6,74.4,68.2,100,84,49,29.85,29.71,0,0,0,0.08
2012-9-9,85.9,74.2,62.4,68.6,62.1,54.6,94,69,35,29.97,29.84,0,0,0,0.00
2012-9-10,85.9,72.1,59.8,66.5,61.7,56.0,96,74,39,30.03,29.95,0,0,0,0.00
2012-9-11,87.2,75.1,61.8,70.7,66.2,60.7,96,76,50,30.08,29.98,0,0,0,0.00
2012-9-12,84.7,77.4,68.4,76.1,71.0,65.0,91,81,70,30.08,30.00,0,0,0,0.00
2012-9-13,86.1,77.8,69.6,76.5,72.3,67.1,95,84,71,30.09,30.01,0,0,0,0.00
2012-9-14,88.2,77.0,67.4,73.9,70.0,66.4,98,81,57,30.08,29.99,0,0,0,0.00
2012-9-15,88.2,76.9,66.8,74.1,69.9,65.3,96,81,53,30.05,29.96,0,0,0,0.00
2012-9-16,86.1,78.3,69.6,76.3,73.2,69.3,99,85,68,29.97,29.85,0,0,0,0.00
2012-9-17,79.4,76.5,73.0,77.4,74.8,72.1,100,95,87,29.86,29.63,5,0,13,1.55
2012-9-18,83.6,75.6,68.3,74.6,69.3,64.6,100,82,55,29.92,29.67,2,0,10,0.01
2012-9-19,80.3,70.7,61.8,68.9,63.0,58.7,91,78,55,30.01,29.91,4,0,10,0.00
2012-9-20,83.2,71.4,58.7,67.4,62.5,56.3,97,76,49,30.02,29.92,2,0,5,0.00
2012-9-21,86.3,74.5,64.0,70.8,67.2,62.8,100,81,48,29.97,29.89,0,0,0,0.00
2012-9-22,88.4,75.8,66.3,75.5,70.8,66.0,100,86,54,30.02,29.92,0,0,0,0.01
2012-9-23,88.2,77.2,67.6,73.3,70.3,67.3,99,82,53,30.08,30.00,0,0,0,0.00
2012-9-24,86.5,76.2,67.1,71.5,69.1,63.4,99,81,53,30.10,30.00,0,0,0,0.01
2012-9-25,84.1,74.1,62.3,69.3,64.4,60.3,96,73,54,30.07,29.99,0,0,0,0.00
2012-9-26,85.9,77.6,65.6,74.4,69.8,62.9,96,78,57,30.06,29.98,0,0,0,0.00
2012-9-27,86.3,77.8,69.3,76.4,71.7,68.1,99,83,63,30.06,29.97,0,0,0,0.00
2012-9-28,86.7,76.6,69.6,77.4,73.0,69.2,100,90,66,30.01,29.91,0,0,1,0.15
2012-9-29,75.8,74.1,72.0,75.5,73.9,72.0,100,99,97,29.92,29.77,0,0,0,0.16
2012-9-30,80.7,77.5,74.0,77.7,75.2,71.8,98,93,81,29.77,29.47,0,0,1,1.12
2012-10-1,77.9,68.4,63.1,74.7,64.1,60.7,95,87,74,29.69,29.44,18,0,18,0.24
2012-10-2,80.7,68.9,60.4,64.4,61.3,55.2,99,79,43,29.93,29.68,0,0,0,0.03
2012-10-3,81.2,72.3,60.4,70.8,65.7,59.7,100,81,60,30.06,29.92,0,0,0,0.03
2012-10-4,85.1,73.2,62.7,72.7,67.8,62.1,99,85,53,30.15,30.06,0,0,0,0.01
2012-10-5,86.5,73.1,62.6,71.7,67.0,62.3,99,83,50,30.07,29.93,1,0,1,0.01
2012-10-6,87.2,74.1,62.4,70.9,65.9,62.0,100,79,44,29.95,29.85,0,0,6,0.01
2012-10-7,76.5,63.6,56.3,64.2,59.2,52.2,94,86,60,30.05,29.94,11,0,12,0.00
2012-10-8,75.3,61.6,51.6,56.7,51.9,47.0,88,72,49,30.07,29.97,0,0,1,0.00
2012-10-9,76.7,62.9,50.1,61.6,55.5,48.7,96,79,51,30.08,29.96,0,0,0,0.00
2012-10-10,83.0,69.4,56.7,69.7,63.1,56.3,100,83,55,30.09,29.99,0,0,0,0.01
2012-10-11,82.2,70.4,61.8,68.6,64.2,61.5,100,83,54,30.17,30.07,0,0,0,0.00
2012-10-12,83.6,70.9,60.5,70.3,64.8,60.5,100,83,48,30.20,30.09,0,0,0,0.01
2012-10-13,84.3,72.1,60.4,73.1,66.6,56.6,100,85,40,30.17,30.05,0,0,0,0.01
2012-10-14,85.3,78.4,74.0,73.9,71.9,69.9,95,81,62,30.08,29.92,0,0,0,0.00
2012-10-15,86.1,75.3,61.3,74.4,65.9,55.5,98,76,41,29.94,29.84,0,0,3,0.00
2012-10-16,77.7,65.6,52.9,58.5,54.4,50.4,96,71,41,29.92,29.80,1,0,2,0.00
2012-10-17,80.1,71.6,58.9,71.8,64.0,55.2,91,78,58,29.82,29.70,7,0,8,0.00
2012-10-18,81.1,72.2,58.9,74.7,62.5,45.2,100,75,29,29.83,29.66,0,0,0,1.24
2012-10-19,81.6,67.1,50.7,53.1,44.1,30.5,93,52,17,29.88,29.78,5,0,6,0.00
2012-10-20,79.2,62.4,46.5,56.9,48.6,35.6,97,67,23,29.94,29.84,6,0,7,0.00
2012-10-21,79.0,64.0,50.8,64.6,56.2,50.5,100,79,44,30.04,29.92,5,0,6,0.01
2012-10-22,79.6,67.2,54.1,67.9,61.1,53.3,98,83,56,30.06,29.98,4,0,9,0.01
2012-10-23,81.1,71.8,60.2,71.4,66.6,59.6,99,85,67,30.02,29.95,10,0,11,0.00
2012-10-24,82.6,72.1,61.8,71.3,66.8,61.4,100,85,60,30.02,29.92,1,0,3,0.00
2012-10-25,82.2,71.5,61.0,73.3,68.2,61.0,100,90,72,29.94,29.86,0,0,4,0.02
2012-10-26,86.1,72.7,62.7,70.2,64.2,57.2,100,78,43,29.92,29.82,0,0,5,0.01
2012-10-27,62.1,53.6,46.4,57.2,48.5,43.9,92,83,71,29.94,29.86,18,0,20,0.00
2012-10-28,65.6,52.6,42.2,44.3,40.2,34.1,94,67,32,30.05,29.89,1,0,9,0.00
2012-10-29,63.7,50.8,40.1,38.0,34.0,25.2,88,57,25,30.09,29.95,0,0,0,0.00
2012-10-30,69.3,53.0,38.5,46.0,36.9,29.1,87,60,25,30.02,29.90,1,0,6,0.00
2012-10-31,77.2,60.8,46.7,61.6,53.7,44.2,96,79,43,30.00,29.88,11,0,12,0.00
2012-11-1,74.7,63.8,56.2,61.0,55.2,45.0,99,77,38,30.02,29.91,2,0,3,0.00
2012-11-2,78.6,66.2,54.2,69.3,63.0,53.8,100,90,66,30.03,29.92,2,0,3,0.01
2012-11-3,84.0,69.5,57.5,70.9,65.3,57.2,100,88,55,30.07,29.97,1,0,2,0.01
2012-11-4,76.3,64.7,58.9,70.0,63.8,58.7,100,97,70,30.05,29.96,0,0,1,1.22
2012-11-5,69.1,60.8,52.5,63.7,57.1,50.1,100,89,59,30.00,29.83,0,0,1,0.09
2012-11-6,62.6,53.8,45.8,57.8,49.8,44.5,100,87,66,29.99,29.85,0,0,0,0.01
2012-11-7,68.4,54.3,42.9,52.4,42.6,33.4,100,70,29,30.09,29.91,0,0,0,0.01
2012-11-8,64.2,49.7,38.0,47.7,42.0,36.7,97,78,41,30.20,30.09,0,0,0,0.00
2012-11-9,69.3,54.4,40.2,58.2,49.4,39.9,100,85,57,30.22,30.12,1,0,5,0.01
2012-11-10,73.2,61.7,48.8,62.9,57.5,48.3,100,87,67,30.20,30.10,6,0,9,0.01
2012-11-11,78.1,70.2,62.9,66.9,64.6,61.5,98,83,65,30.12,30.06,3,0,3,0.00
2012-11-12,68.6,59.3,48.3,67.6,56.1,40.7,99,89,72,30.26,30.03,0,0,0,0.50
2012-11-13,59.6,48.6,39.8,40.8,33.7,27.0,80,59,33,30.31,30.18,0,0,0,0.00
2012-11-14,66.3,50.2,40.5,42.7,36.5,31.3,84,63,29,30.24,30.12,6,0,6,0.00
2012-11-15,43.2,42.0,41.1,38.1,37.8,37.4,87,85,82,30.17,30.14,0,0,0,0.00